createdAt,value
2023-03-22T00:00:59.335Z,61.94
2023-03-22T00:03:37.881Z,61.47
2023-03-22T00:06:08.013Z,61.63
2023-03-22T00:08:36.690Z,61.11
2023-03-22T00:11:07.475Z,61.21
2023-03-22T00:13:37.588Z,61.31
2023-03-22T00:16:08.505Z,61.08
2023-03-22T00:18:39.077Z,61.37
2023-03-22T00:21:13.166Z,61.08
2023-03-22T00:23:51.658Z,61.25
2023-03-22T00:26:21.532Z,61.14
2023-03-22T00:29:03.867Z,61.75
2023-03-22T00:31:36.591Z,61.49
2023-03-22T00:34:12.173Z,61.60
2023-03-22T00:36:44.790Z,61.91
2023-03-22T00:39:16.460Z,61.56
2023-03-22T00:41:48.292Z,61.36
2023-03-22T00:44:25.697Z,61.59
2023-03-22T00:47:06.006Z,61.34
2023-03-22T00:49:39.942Z,61.23
2023-03-22T00:52:09.781Z,61.21
2023-03-22T00:54:41.146Z,61.62
2023-03-22T00:57:15.534Z,61.88
2023-03-22T00:59:46.055Z,61.95
2023-03-22T01:02:29.997Z,61.69
2023-03-22T01:05:12.511Z,61.90
2023-03-22T01:07:42.100Z,62.22
2023-03-22T01:13:00.410Z,62.93
2023-03-22T01:15:38.670Z,62.77
2023-03-22T01:18:15.074Z,62.83
2023-03-22T01:20:46.210Z,62.48
2023-03-22T01:23:19.860Z,63.10
2023-03-22T01:25:49.598Z,63.18
2023-03-22T01:28:23.760Z,62.31
2023-03-22T01:30:53.770Z,63.05
2023-03-22T01:33:23.708Z,62.99
2023-03-22T01:36:00.175Z,62.49
2023-03-22T01:38:41.650Z,62.94
2023-03-22T01:41:16.406Z,62.97
2023-03-22T01:43:52.218Z,62.69
2023-03-22T01:46:21.035Z,62.03
2023-03-22T01:48:57.885Z,62.72
2023-03-22T01:51:30.268Z,62.06
2023-03-22T01:54:26.064Z,62.07
2023-03-22T01:57:11.122Z,62.27
2023-03-22T02:00:14.570Z,63.34
2023-03-22T02:03:05.286Z,63.08
2023-03-22T02:05:58.365Z,62.63
2023-03-22T02:09:01.880Z,62.45
2023-03-22T02:12:04.146Z,62.82
2023-03-22T02:15:05.342Z,62.70
2023-03-22T02:18:21.457Z,62.38
2023-03-22T02:21:33.128Z,61.95
2023-03-22T02:24:46.452Z,61.85
2023-03-22T02:27:54.502Z,62.32
2023-03-22T02:31:07.456Z,61.71
2023-03-22T02:34:00.011Z,61.75
2023-03-22T02:36:58.968Z,61.75
2023-03-22T02:39:39.849Z,62.15
2023-03-22T02:42:25.913Z,61.89
2023-03-22T02:45:05.874Z,62.04
2023-03-22T02:47:43.554Z,62.48
2023-03-22T02:50:26.190Z,62.41
2023-03-22T02:52:58.477Z,62.59
2023-03-22T02:55:37.196Z,62.38
2023-03-22T02:58:09.948Z,62.34
2023-03-22T03:00:45.722Z,62.54
2023-03-22T03:03:22.559Z,62.36
2023-03-22T03:05:58.295Z,62.20
2023-03-22T03:08:34.105Z,62.42
2023-03-22T03:11:25.017Z,62.92
2023-03-22T03:14:03.888Z,63.94
2023-03-22T03:16:37.728Z,63.47
2023-03-22T03:19:15.352Z,63.98
2023-03-22T03:22:01.165Z,64.15
2023-03-22T03:24:51.186Z,64.16
2023-03-22T03:27:29.563Z,64.53
2023-03-22T03:30:13.286Z,64.08
2023-03-22T03:33:07.821Z,64.37
2023-03-22T03:35:43.080Z,63.84
2023-03-22T03:38:21.089Z,63.93
2023-03-22T03:40:53.670Z,64.08
2023-03-22T03:43:27.244Z,63.55
2023-03-22T03:45:57.095Z,64.01
2023-03-22T03:48:30.015Z,64.02
2023-03-22T03:51:05.403Z,64.26
2023-03-22T03:53:35.438Z,63.58
2023-03-22T03:56:06.798Z,63.37
2023-03-22T03:58:55.942Z,64.00
2023-03-22T04:01:26.762Z,63.80
2023-03-22T04:04:16.724Z,64.04
2023-03-22T04:06:58.752Z,63.25
2023-03-22T04:09:39.425Z,63.73
2023-03-22T04:12:21.898Z,63.73
2023-03-22T04:15:25.085Z,63.55
2023-03-22T04:17:58.987Z,64.19
2023-03-22T04:20:45.726Z,63.74
2023-03-22T04:23:20.090Z,64.01
2023-03-22T04:25:52.748Z,63.59
2023-03-22T04:28:39.850Z,63.73
2023-03-22T04:31:12.033Z,64.23
2023-03-22T04:33:55.588Z,64.33
2023-03-22T04:37:00.049Z,64.28
2023-03-22T04:39:35.233Z,64.36
2023-03-22T04:42:25.390Z,64.12
2023-03-22T04:45:15.256Z,63.79
2023-03-22T04:47:57.338Z,64.53
2023-03-22T04:50:34.752Z,64.81
2023-03-22T04:53:06.788Z,65.06
2023-03-22T04:55:36.406Z,64.75
2023-03-22T04:58:05.060Z,64.90
2023-03-22T05:00:41.846Z,64.89
2023-03-22T05:03:15.256Z,65.04
2023-03-22T05:05:55.299Z,64.84
2023-03-22T05:08:34.763Z,64.82
2023-03-22T05:11:08.908Z,64.86
2023-03-22T05:13:40.788Z,64.97
2023-03-22T05:16:11.442Z,64.84
2023-03-22T05:19:06.984Z,64.77
2023-03-22T05:21:41.872Z,65.31
2023-03-22T05:24:17.559Z,65.37
2023-03-22T05:26:54.095Z,65.39
2023-03-22T05:29:28.920Z,65.45
2023-03-22T05:32:16.513Z,65.83
2023-03-22T05:34:48.874Z,65.14
2023-03-22T05:37:41.085Z,65.24
2023-03-22T05:40:15.137Z,65.85
2023-03-22T05:42:46.620Z,65.81
2023-03-22T05:45:40.392Z,65.71
2023-03-22T05:48:21.581Z,65.85
2023-03-22T05:50:51.672Z,65.49
2023-03-22T05:53:22.798Z,65.33
2023-03-22T05:56:10.040Z,65.50
2023-03-22T05:58:42.896Z,65.27
2023-03-22T06:01:19.775Z,65.46
2023-03-22T06:03:52.003Z,65.42
2023-03-22T06:06:38.054Z,64.74
2023-03-22T06:09:31.721Z,64.68
2023-03-22T06:12:01.167Z,65.13
2023-03-22T06:14:33.859Z,64.77
2023-03-22T06:17:23.985Z,64.29
2023-03-22T06:19:59.917Z,64.57
2023-03-22T06:22:33.445Z,65.00
2023-03-22T06:25:08.416Z,65.85
2023-03-22T06:27:44.273Z,65.62
2023-03-22T06:30:19.537Z,66.16
2023-03-22T06:33:15.983Z,66.85
2023-03-22T06:35:58.915Z,66.40
2023-03-22T06:38:37.585Z,66.79
2023-03-22T06:41:07.431Z,66.60
2023-03-22T06:43:36.656Z,66.77
2023-03-22T06:46:19.953Z,66.58
2023-03-22T06:49:00.458Z,66.26
2023-03-22T06:51:36.463Z,66.29
2023-03-22T06:54:09.666Z,66.39
2023-03-22T06:56:41.604Z,66.06
2023-03-22T06:59:15.315Z,66.10
2023-03-22T07:01:52.962Z,65.88
2023-03-22T07:04:24.682Z,65.51
2023-03-22T07:06:55.497Z,65.18
2023-03-22T07:09:29.190Z,65.28
2023-03-22T07:12:05.114Z,65.44
2023-03-22T07:14:36.935Z,65.21
2023-03-22T07:17:23.589Z,64.88
2023-03-22T07:19:52.174Z,64.50
2023-03-22T07:22:22.536Z,64.43
2023-03-22T07:25:12.861Z,63.60
2023-03-22T07:27:45.304Z,64.73
2023-03-22T07:30:26.169Z,64.85
2023-03-22T07:32:56.492Z,64.50
2023-03-22T07:35:39.161Z,64.59
2023-03-22T07:38:09.742Z,64.29
2023-03-22T07:40:59.674Z,64.03
2023-03-22T07:43:54.007Z,63.95
2023-03-22T07:46:28.979Z,63.41
2023-03-22T07:49:21.439Z,63.35
2023-03-22T07:52:13.843Z,62.60
2023-03-22T07:54:43.641Z,62.22
2023-03-22T07:57:29.510Z,61.05
2023-03-22T08:00:13.752Z,60.56
2023-03-22T08:02:59.208Z,60.17
2023-03-22T08:05:59.064Z,59.58
2023-03-22T08:08:29.306Z,58.43
2023-03-22T08:10:59.878Z,58.82
2023-03-22T08:13:47.156Z,57.86
2023-03-22T08:16:20.213Z,57.89
2023-03-22T08:18:57.304Z,57.33
2023-03-22T08:21:30.759Z,57.22
2023-03-22T08:24:01.183Z,56.28
2023-03-22T08:26:58.663Z,56.23
2023-03-22T08:29:54.497Z,55.44
2023-03-22T08:32:26.044Z,55.34
2023-03-22T08:35:03.885Z,55.16
2023-03-22T08:37:34.654Z,55.28
2023-03-22T08:40:14.861Z,55.19
2023-03-22T08:43:08.823Z,53.82
2023-03-22T08:45:48.461Z,54.38
2023-03-22T08:48:21.143Z,53.71
2023-03-22T08:51:09.148Z,53.64
2023-03-22T08:53:59.108Z,53.70
2023-03-22T08:57:09.579Z,53.60
2023-03-22T08:59:58.928Z,53.21
2023-03-22T09:02:50.808Z,53.34
2023-03-22T09:05:20.647Z,52.62
2023-03-22T09:08:06.644Z,52.39
2023-03-22T09:10:58.207Z,52.62
2023-03-22T09:13:30.722Z,52.62
2023-03-22T09:16:04.797Z,52.19
2023-03-22T09:18:39.900Z,51.85
2023-03-22T09:21:26.612Z,51.71
2023-03-22T09:24:27.457Z,51.46
2023-03-22T09:26:59.443Z,51.30
2023-03-22T09:29:28.399Z,50.66
2023-03-22T09:31:57.843Z,50.98
2023-03-22T09:34:41.111Z,50.91
2023-03-22T09:37:15.652Z,50.42
2023-03-22T09:40:11.875Z,50.52
2023-03-22T09:42:46.627Z,49.98
2023-03-22T09:45:20.575Z,50.45
2023-03-22T09:47:54.941Z,49.48
2023-03-22T09:50:26.477Z,49.19
2023-03-22T09:52:58.164Z,49.36
2023-03-22T09:55:34.080Z,49.25
2023-03-22T09:58:10.581Z,49.41
2023-03-22T10:00:46.867Z,48.99
2023-03-22T10:03:23.277Z,48.58
2023-03-22T10:06:01.000Z,48.59
2023-03-22T10:08:49.768Z,47.86
2023-03-22T10:11:24.621Z,47.87
2023-03-22T10:14:09.160Z,47.56
2023-03-22T10:16:38.001Z,47.48
2023-03-22T10:19:16.933Z,47.28
2023-03-22T10:21:56.479Z,45.91
2023-03-22T10:24:29.636Z,45.44
2023-03-22T10:26:57.900Z,44.85
2023-03-22T10:29:32.566Z,45.00
2023-03-22T10:32:16.376Z,44.56
2023-03-22T10:34:46.743Z,44.81
2023-03-22T10:37:21.875Z,44.73
2023-03-22T10:39:55.894Z,44.37
2023-03-22T10:42:27.123Z,44.77
2023-03-22T10:45:02.319Z,44.59
2023-03-22T10:47:32.789Z,44.38
2023-03-22T10:50:04.570Z,44.00
2023-03-22T10:52:48.965Z,43.88
2023-03-22T10:55:21.090Z,44.32
2023-03-22T10:57:59.303Z,44.66
2023-03-22T11:00:29.107Z,44.96
2023-03-22T11:03:04.933Z,44.98
2023-03-22T11:05:34.488Z,45.49
2023-03-22T11:08:10.953Z,45.07
2023-03-22T11:10:42.694Z,45.47
2023-03-22T11:13:24.946Z,45.11
2023-03-22T11:16:02.646Z,44.35
2023-03-22T11:18:33.456Z,44.07
2023-03-22T11:21:18.583Z,44.46
2023-03-22T11:24:05.337Z,45.47
2023-03-22T11:26:39.049Z,45.38
2023-03-22T11:29:26.207Z,45.41
2023-03-22T11:31:58.537Z,45.77
2023-03-22T11:34:36.744Z,45.95
2023-03-22T11:37:09.267Z,46.21
2023-03-22T11:39:48.132Z,45.67
2023-03-22T11:42:21.107Z,45.05
2023-03-22T11:44:49.629Z,43.98
2023-03-22T11:47:21.365Z,43.12
2023-03-22T11:49:54.598Z,43.08
2023-03-22T11:52:29.176Z,42.34
2023-03-22T11:55:02.939Z,42.29
2023-03-22T11:57:42.836Z,42.27
2023-03-22T12:00:20.686Z,41.96
2023-03-22T12:02:54.922Z,41.51
2023-03-22T12:05:27.434Z,41.45
2023-03-22T12:08:03.042Z,40.82
2023-03-22T12:10:40.147Z,40.70
2023-03-22T12:13:20.973Z,40.22
2023-03-22T12:15:54.322Z,40.09
2023-03-22T12:18:29.567Z,39.79
2023-03-22T12:21:07.761Z,40.00
2023-03-22T12:23:36.818Z,39.76
2023-03-22T12:26:11.380Z,39.49
2023-03-22T12:28:46.454Z,39.30
2023-03-22T12:31:19.643Z,39.17
2023-03-22T12:33:50.928Z,39.15
2023-03-22T12:36:22.170Z,39.07
2023-03-22T12:38:54.341Z,39.06
2023-03-22T12:41:30.277Z,39.01
2023-03-22T12:44:02.584Z,39.39
2023-03-22T12:46:37.102Z,38.80
2023-03-22T12:49:20.064Z,38.61
2023-03-22T12:51:59.501Z,38.00
2023-03-22T12:54:31.493Z,38.22
2023-03-22T12:57:03.392Z,37.90
2023-03-22T12:59:46.966Z,37.88
2023-03-22T13:02:27.980Z,37.60
2023-03-22T13:05:10.005Z,37.66
2023-03-22T13:07:48.622Z,37.51
2023-03-22T13:10:54.627Z,37.28
2023-03-22T13:16:53.256Z,37.46
2023-03-22T13:19:37.145Z,37.16
2023-03-22T13:22:24.031Z,37.13
2023-03-22T13:25:24.152Z,37.33
2023-03-22T13:28:06.268Z,37.09
2023-03-22T13:30:49.435Z,36.86
2023-03-22T13:33:27.379Z,37.07
2023-03-22T13:35:59.807Z,37.32
2023-03-22T13:38:31.771Z,37.48
2023-03-22T13:41:03.586Z,37.94
2023-03-22T13:43:35.842Z,39.11
2023-03-22T13:46:15.972Z,39.40
2023-03-22T13:49:01.608Z,39.22
2023-03-22T13:51:43.714Z,39.41
2023-03-22T13:54:19.956Z,39.51
2023-03-22T13:57:02.447Z,39.31
2023-03-22T14:00:08.849Z,39.45
2023-03-22T14:02:44.380Z,39.85
2023-03-22T14:05:20.811Z,40.40
2023-03-22T14:07:59.553Z,40.97
2023-03-22T14:10:32.750Z,41.66
2023-03-22T14:13:07.080Z,41.76
2023-03-22T14:15:40.343Z,41.86
2023-03-22T14:18:25.915Z,41.81
2023-03-22T14:21:01.564Z,41.87
